To NAV CANADA Home Page Login to a new session Search on AWWS site Feedback and Comments Disclaimer Vers la page française équivalente Tips FAQ What's new on the site To the Forecasts and Observations / NOTAM section To "File a Flight Plan" website Publications and other links Update of the User's profile FIC Telephone Numbers My Weather Data Folder Route Weather Data Regional Weather Data Local Weather Data To the Forecasts and Observations / NOTAM section
Request Generated 05/02/2016 at 01:20:45 UTC . Weather information available at that time is displayed.

METAR/TAF

ABBOTSFORD/BC    

METAR CYXX 020100Z 25004KT 30SM SKC 24/10 A2997 RMK SLP149 DENSITY
ALT 1200FT=
METAR CYXX 020000Z 26007KT 30SM SKC 25/08 A2999 RMK SLP156 DENSITY
ALT 1200FT=
METAR CYXX 012300Z 24004KT 220V290 30SM SKC 25/09 A3002 RMK SLP166
DENSITY ALT 1200FT=

TAF CYXX 012338Z 0200/0224 VRB03KT P6SM SKC
BECMG 0208/0210 04006KT
FM022100 05008KT P6SM SCT080
RMK NXT FCST BY 020600Z=
Your time UTC time
Weather data provided by Environment Canada and NAV CANADA